La Crosse, Indiana
Current Conditions -  °F | °C
As of 3:56 PM on Friday 19 Dec 2014 (Local Time) from KVPZ Reporting Station
Overcast Overcast  
Wind Chill: 24°   Ceiling: 2800
Heat Index: 31°   Visibility: 10mi
Dew Point: 24°   Wind: 7mph
Humidity: 76%   Direction: 270°W
Pressure: 30.3"   Gusts: NA
Location:  41.32°N, 86.89°W
Report Text: KVPZ 192156Z AUTO 27006KT 10SM OVC028 M01/M04 A3030 RMK AO2 SLP271 T10061044 TSNO
Loading
Personal Weather Stations






























Interactive Weather Map New forecast layout! Learn more

10-Day Weather Forecast

Advertisements
Track Severe Weather on mobile